M I D A S
Marine Information and Data Acquisition System
Tripno 141 of the Zeeleeuw from 2001-07-16 07:15:02 to 2001-07-18 07:20:00
Back to CruiseResearch ActivitiesStationsMapUnderway DataData graphs

EquipmentUnitsComment
TimeDGPSUTC
LatitudeDGPSDM.mWGS84
LongitudeDGPSDM.mWGS84
HeadingGyrodeg 
SOGDGPSknotsSpeed over ground
COGDGPSdegCourse over ground
DepthEcho soundermeters200 kHz
Missing or incorrect values are displayed as -999
Navigation data collected by the RV Zeeleeuw from 2001-07-16 07:15:02 to 2001-07-18 07:20:00
                                                                                    Next 1000 lines
Time Latitude Longitude Heading SOG COG Depth
2001-07-16 07:15:12 51°13.676 2°55.925 358.8   154.3 -999
2001-07-16 07:15:18 51°13.677 2°55.925 358.8   91.6 -999
2001-07-16 07:15:22 51°13.677 2°55.925 358.7   108.8 -999
2001-07-16 07:15:27 51°13.677 2°55.925 358.7   38.6 -999
2001-07-16 07:15:32 51°13.677 2°55.925 358.5   50.9 -999
2001-07-16 07:15:37 51°13.677 2°55.925 358.5   172.5 -999
2001-07-16 07:15:42 51°13.677 2°55.925 358.5   176.7 -999
2001-07-16 07:15:48 51°13.677 2°55.925 358.5   169 -999
2001-07-16 07:15:52 51°13.677 2°55.925 358.5   236.5 -999
2001-07-16 07:15:57 51°13.677 2°55.925 358.7   305.3 -999
2001-07-16 07:16:02 51°13.677 2°55.925 358.7   23.6 -999
2001-07-16 07:16:07 51°13.677 2°55.925 358.7   36.4 -999
2001-07-16 07:16:12 51°13.677 2°55.925 358.7   52.8 -999
2001-07-16 07:16:18 51°13.677 2°55.925 358.7   93.5 -999
2001-07-16 07:16:22 51°13.677 2°55.925 358.7   67.9 -999
2001-07-16 07:16:27 51°13.677 2°55.925 358.5   172.4 -999
2001-07-16 07:16:32 51°13.677 2°55.925 358.5   190.4 -999
2001-07-16 07:16:37 51°13.677 2°55.925 358.5   173.2 -999
2001-07-16 07:16:42 51°13.677 2°55.925 358.5   84.7 -999
2001-07-16 07:16:47 51°13.677 2°55.925 358.3   63.9 -999
2001-07-16 07:16:52 51°13.677 2°55.924 358.3   169 -999
2001-07-16 07:16:58 51°13.677 2°55.924 358.3   166.3 -999
2001-07-16 07:17:02 51°13.677 2°55.924 358.5   154.9 -999
2001-07-16 07:17:07 51°13.677 2°55.924 358.5   56.8 -999
2001-07-16 07:17:12 51°13.677 2°55.924 358.5   65.7 -999
2001-07-16 07:17:17 51°13.677 2°55.924 358.5   74.4 -999
2001-07-16 07:17:22 51°13.677 2°55.924 358.5   193.9 -999
2001-07-16 07:17:28 51°13.677 2°55.924 358.5   189.1 -999
2001-07-16 07:17:32 51°13.677 2°55.924 358.5   153.5 -999
2001-07-16 07:17:37 51°13.677 2°55.924 358.5   148.3 -999
2001-07-16 07:17:42 51°13.677 2°55.924 358.5   165.4 -999
2001-07-16 07:17:47 51°13.677 2°55.924 358.5   190 -999
2001-07-16 07:17:52 51°13.677 2°55.924 358.5   197.3 -999
2001-07-16 07:17:58 51°13.677 2°55.924 358.7   175.8 -999
2001-07-16 07:18:02 51°13.677 2°55.924 358.7   212.2 -999
2001-07-16 07:18:08 51°13.677 2°55.924 358.7   199.8 -999
2001-07-16 07:18:12 51°13.677 2°55.924 358.7   173.4 -999
2001-07-16 07:18:17 51°13.677 2°55.924 358.7   132.9 -999
2001-07-16 07:18:22 51°13.677 2°55.924 358.7   73.7 -999
2001-07-16 07:18:27 51°13.677 2°55.924 358.7   107.7 -999
2001-07-16 07:18:32 51°13.677 2°55.924 358.7   183.7 -999
2001-07-16 07:18:37 51°13.677 2°55.924 358.7   172.8 -999
2001-07-16 07:18:42 51°13.677 2°55.924 358.7   138.3 -999
2001-07-16 07:18:47 51°13.677 2°55.924 358.7   242.5 -999
2001-07-16 07:18:52 51°13.677 2°55.924 358.8   248.9 -999
2001-07-16 07:18:57 51°13.677 2°55.924 358.8   212.6 -999
2001-07-16 07:19:02 51°13.677 2°55.924 358.8   201.1 -999
2001-07-16 07:19:07 51°13.677 2°55.924 358.8   191.2 -999
2001-07-16 07:19:12 51°13.677 2°55.924 358.8   192.1 -999
2001-07-16 07:19:18 51°13.677 2°55.924 358.8   184.8 -999
2001-07-16 07:19:22 51°13.677 2°55.925 358.7   169.6 -999
2001-07-16 07:19:27 51°13.677 2°55.925 358.7   163.3 -999
2001-07-16 07:19:32 51°13.677 2°55.925 358.5   186.2 -999
2001-07-16 07:19:37 51°13.677 2°55.925 358.3   181.1 -999
2001-07-16 07:19:42 51°13.677 2°55.925 358.3   186.9 -999
2001-07-16 07:19:48 51°13.677 2°55.925 358.2   190.2 -999
2001-07-16 07:19:52 51°13.677 2°55.925 358.2   338.4 -999
2001-07-16 07:19:57 51°13.677 2°55.925 358.2   240.3 -999
2001-07-16 07:20:02 51°13.677 2°55.925 358.2   341.7 -999
2001-07-16 07:20:07 51°13.677 2°55.925 358.2   334.9 -999
2001-07-16 07:20:12 51°13.677 2°55.925 358.3   248.3 -999
2001-07-16 07:20:17 51°13.677 2°55.925 358.3   212.7 -999
2001-07-16 07:20:22 51°13.677 2°55.925 358.3   178.2 -999
2001-07-16 07:20:28 51°13.677 2°55.925 358.3   135 -999
2001-07-16 07:20:32 51°13.677 2°55.925 358.3   158.5 -999
2001-07-16 07:20:37 51°13.677 2°55.925 358.3   169.2 -999
2001-07-16 07:20:42 51°13.677 2°55.925 358.3   157.9 -999
2001-07-16 07:20:47 51°13.677 2°55.925 358.3   172.6 -999
2001-07-16 07:20:52 51°13.677 2°55.924 358.3   211.4 -999
2001-07-16 07:20:58 51°13.677 2°55.924 358.3   227.2 -999
2001-07-16 07:21:02 51°13.677 2°55.924 358.5   243.1 -999
2001-07-16 07:21:07 51°13.677 2°55.924 358.5   249.3 -999
2001-07-16 07:21:12 51°13.677 2°55.924 358.5   297.7 -999
2001-07-16 07:21:17 51°13.677 2°55.924 358.5   22.7 -999
2001-07-16 07:21:22 51°13.677 2°55.924 358.5   83.3 -999
2001-07-16 07:21:28 51°13.677 2°55.924 358.3   116.1 -999
2001-07-16 07:21:32 51°13.677 2°55.924 358.3   132.3 -999
2001-07-16 07:21:38 51°13.677 2°55.924 358.3   113.3 -999
2001-07-16 07:21:42 51°13.677 2°55.924 358.2   39.3 -999
2001-07-16 07:21:47 51°13.677 2°55.924 358.2   333 -999
2001-07-16 07:21:52 51°13.677 2°55.924 358.2   268.2 -999
2001-07-16 07:21:57 51°13.677 2°55.924 358.3   296.4 -999
2001-07-16 07:22:02 51°13.677 2°55.924 358.3   330.4 -999
2001-07-16 07:22:08 51°13.677 2°55.924 358.3   268.7 -999
2001-07-16 07:22:13 51°13.677 2°55.924 358.3   186.7 -999
2001-07-16 07:22:17 51°13.677 2°55.924 358.3   96.9 -999
2001-07-16 07:22:22 51°13.677 2°55.924 358.3   121.7 -999
2001-07-16 07:22:27 51°13.677 2°55.924 358.2   99.8 -999
2001-07-16 07:22:32 51°13.677 2°55.924 358.2   68.7 -999
2001-07-16 07:22:38 51°13.677 2°55.924 358.2   168.7 -999
2001-07-16 07:22:42 51°13.677 2°55.924 358.2   182.1 -999
2001-07-16 07:22:48 51°13.677 2°55.924 358.2   159.4 -999
2001-07-16 07:22:52 51°13.677 2°55.924 358.3   158.1 -999
2001-07-16 07:22:57 51°13.677 2°55.924 358.3   135.5 -999
2001-07-16 07:23:02 51°13.677 2°55.924 358.3   181.6 -999
2001-07-16 07:23:08 51°13.677 2°55.924 358.5   203.1 -999
2001-07-16 07:23:12 51°13.677 2°55.924 358.5   322.8 -999
2001-07-16 07:23:18 51°13.677 2°55.924 358.5   200.5 -999
2001-07-16 07:23:22 51°13.677 2°55.924 358.7   215.7 -999
2001-07-16 07:23:27 51°13.677 2°55.924 358.7   340.5 -999
2001-07-16 07:23:32 51°13.677 2°55.924 358.7   329.5 -999
2001-07-16 07:23:38 51°13.677 2°55.924 358.8   279.5 -999
2001-07-16 07:23:42 51°13.677 2°55.924 358.8   302.8 -999
2001-07-16 07:23:48 51°13.677 2°55.924 358.8   322.1 -999
2001-07-16 07:23:52 51°13.677 2°55.924 358.7   193.6 -999
2001-07-16 07:23:57 51°13.677 2°55.924 358.7   200.8 -999
2001-07-16 07:24:02 51°13.677 2°55.924 358.5   358.5 -999
2001-07-16 07:24:07 51°13.677 2°55.924 358.3   5.3 -999
2001-07-16 07:24:12 51°13.677 2°55.924 358.3   154.1 -999
2001-07-16 07:24:17 51°13.677 2°55.924 358.2   155.2 -999
2001-07-16 07:24:22 51°13.677 2°55.924 358.2   138.9 -999
2001-07-16 07:24:28 51°13.677 2°55.924 358   184.4 -999
2001-07-16 07:24:32 51°13.677 2°55.924 358   246.1 -999
2001-07-16 07:24:37 51°13.677 2°55.924 358   249.9 -999
2001-07-16 07:24:42 51°13.676 2°55.924 358.2   218.6 -999
2001-07-16 07:24:47 51°13.676 2°55.924 358.2   198 -999
2001-07-16 07:24:52 51°13.676 2°55.924 358.2   325.9 -999
2001-07-16 07:24:57 51°13.676 2°55.924 358.2   293 -999
2001-07-16 07:25:02 51°13.676 2°55.924 358.2   336 -999
2001-07-16 07:25:07 51°13.676 2°55.924 358.2   344.8 -999
2001-07-16 07:25:12 51°13.676 2°55.924 358.2   5.5 -999
2001-07-16 07:25:17 51°13.676 2°55.924 358.2   16.5 -999
2001-07-16 07:25:22 51°13.676 2°55.924 358.2   149.1 -999
2001-07-16 07:25:27 51°13.676 2°55.924 358.2   179.1 -999
2001-07-16 07:25:32 51°13.676 2°55.924 358.3   211.3 -999
2001-07-16 07:25:38 51°13.676 2°55.924 358.3   345.2 -999
2001-07-16 07:25:42 51°13.676 2°55.924 358.3   349.7 -999
2001-07-16 07:25:47 51°13.676 2°55.924 358.5   271.5 -999
2001-07-16 07:25:52 51°13.676 2°55.924 358.5   188.8 -999
2001-07-16 07:25:57 51°13.676 2°55.924 358.5   265.5 -999
2001-07-16 07:26:02 51°13.676 2°55.924 358.5   347.2 -999
2001-07-16 07:26:07 51°13.676 2°55.924 358.5   4.6 -999
2001-07-16 07:26:12 51°13.676 2°55.924 358.5   70.5 -999
2001-07-16 07:26:17 51°13.676 2°55.924 358.5   139.2 -999
2001-07-16 07:26:22 51°13.676 2°55.924 358.5   179 -999
2001-07-16 07:26:27 51°13.676 2°55.924 358.5   233.9 -999
2001-07-16 07:26:32 51°13.676 2°55.924 358.7   225.2 -999
2001-07-16 07:26:37 51°13.676 2°55.924 358.8   212.8 -999
2001-07-16 07:26:42 51°13.676 2°55.924 359   270.8 -999
2001-07-16 07:26:48 51°13.676 2°55.924 359   333.5 -999
2001-07-16 07:26:52 51°13.676 2°55.924 359   330.6 -999
2001-07-16 07:26:57 51°13.676 2°55.924 359   337.8 -999
2001-07-16 07:27:02 51°13.676 2°55.924 359   14.8 -999
2001-07-16 07:27:07 51°13.676 2°55.924 358.8   33.3 -999
2001-07-16 07:27:12 51°13.676 2°55.924 358.8   83 -999
2001-07-16 07:27:18 51°13.676 2°55.924 358.8   118.6 -999
2001-07-16 07:27:22 51°13.676 2°55.924 358.8   160.9 -999
2001-07-16 07:27:27 51°13.676 2°55.924 358.8   170.1 -999
2001-07-16 07:27:32 51°13.676 2°55.924 358.8   258.4 -999
2001-07-16 07:27:37 51°13.676 2°55.923 358.8   280.4 -999
2001-07-16 07:27:42 51°13.676 2°55.923 359   280.9 -999
2001-07-16 07:27:48 51°13.676 2°55.923 359   62.6 -999
2001-07-16 07:27:52 51°13.676 2°55.923 359   140.1 -999
2001-07-16 07:27:58 51°13.676 2°55.923 358.8   141 -999
2001-07-16 07:28:02 51°13.677 2°55.923 358.8   78.7 -999
2001-07-16 07:28:07 51°13.677 2°55.923 358.7   109.4 -999
2001-07-16 07:28:12 51°13.677 2°55.923 358.7   127.6 -999
2001-07-16 07:28:17 51°13.677 2°55.924 358.7   120.1 -999
2001-07-16 07:28:22 51°13.677 2°55.924 358.5   43.3 -999
2001-07-16 07:28:28 51°13.677 2°55.924 358.5   54.1 -999
2001-07-16 07:28:32 51°13.677 2°55.924 358.5   287.1 -999
2001-07-16 07:28:37 51°13.677 2°55.924 358.5   280.9 -999
2001-07-16 07:28:42 51°13.677 2°55.924 358.5   192.6 -999
2001-07-16 07:28:48 51°13.677 2°55.924 358.5   173.7 -999
2001-07-16 07:28:52 51°13.677 2°55.924 358.5   301.6 -999
2001-07-16 07:28:58 51°13.677 2°55.924 358.5   310.3 -999
2001-07-16 07:29:02 51°13.677 2°55.924 358.5   327.3 -999
2001-07-16 07:29:08 51°13.677 2°55.924 358.5   345.8 -999
2001-07-16 07:29:12 51°13.677 2°55.924 358.5   358.2 -999
2001-07-16 07:29:17 51°13.677 2°55.924 358.5   90.7 -999
2001-07-16 07:29:22 51°13.677 2°55.924 358.5   124.5 -999
2001-07-16 07:29:27 51°13.677 2°55.924 358.5   339.4 -999
2001-07-16 07:29:32 51°13.677 2°55.924 358.5   339 -999
2001-07-16 07:29:38 51°13.677 2°55.924 358.5   12.4 -999
2001-07-16 07:29:42 51°13.677 2°55.924 358.5   33.8 -999
2001-07-16 07:29:47 51°13.677 2°55.924 358.5   338.3 -999
2001-07-16 07:29:52 51°13.677 2°55.924 358.5   317.5 -999
2001-07-16 07:29:57 51°13.677 2°55.924 358.5   300.1 -999
2001-07-16 07:30:02 51°13.677 2°55.924 358.7   311.2 -999
2001-07-16 07:30:08 51°13.677 2°55.924 358.7   16.9 -999
2001-07-16 07:30:12 51°13.677 2°55.924 358.5   115.9 -999
2001-07-16 07:30:18 51°13.677 2°55.924 358.5   107.3 -999
2001-07-16 07:30:22 51°13.676 2°55.925 358.5   82.9 -999
2001-07-16 07:30:27 51°13.676 2°55.925 358.3   356.9 -999
2001-07-16 07:30:32 51°13.676 2°55.925 358.3   265.5 -999
2001-07-16 07:30:37 51°13.676 2°55.925 358.3   104.7 -999
2001-07-16 07:30:42 51°13.676 2°55.925 358.3   160.1 -999
2001-07-16 07:30:48 51°13.676 2°55.925 358.3   100.3 -999
2001-07-16 07:30:52 51°13.676 2°55.925 358.3   67.3 -999
2001-07-16 07:30:58 51°13.676 2°55.925 358.3   359.6 -999
2001-07-16 07:31:02 51°13.676 2°55.925 358.3   275.5 -999
2001-07-16 07:31:07 51°13.676 2°55.925 358.3     -999
2001-07-16 07:31:12 51°13.676 2°55.925 358.3   83.9 -999
2001-07-16 07:31:17 51°13.676 2°55.925 358.3   142.7 -999
2001-07-16 07:31:22 51°13.676 2°55.925 358.3   22.8 -999
2001-07-16 07:31:28 51°13.676 2°55.925 358.3     -999
2001-07-16 07:31:32 51°13.676 2°55.925 358.2   289.9 -999
2001-07-16 07:31:37 51°13.676 2°55.925 358.2   23.3 -999
2001-07-16 07:31:42 51°13.676 2°55.925 358.2   25.6 -999
2001-07-16 07:31:47 51°13.676 2°55.925 358.2   57.5 -999
2001-07-16 07:31:52 51°13.676 2°55.925 358.2   359.3 -999
2001-07-16 07:31:58 51°13.676 2°55.925 358.2   346.1 -999
2001-07-16 07:32:02 51°13.676 2°55.925 358.3   340.9 -999
2001-07-16 07:32:08 51°13.676 2°55.925 358.3   286.8 -999
2001-07-16 07:32:12 51°13.676 2°55.925 358.3   185.3 -999
2001-07-16 07:32:17 51°13.676 2°55.925 358.3   167.6 -999
2001-07-16 07:32:22 51°13.676 2°55.925 358.2   161.5 -999
2001-07-16 07:32:28 51°13.676 2°55.925 358.2   322.3 -999
2001-07-16 07:32:32 51°13.676 2°55.925 358.2   348.7 -999
2001-07-16 07:32:38 51°13.676 2°55.926 358.2   351.5 -999
2001-07-16 07:32:42 51°13.676 2°55.926 358.3   111.7 -999
2001-07-16 07:32:47 51°13.676 2°55.926 358.3   176.8 -999
2001-07-16 07:32:52 51°13.676 2°55.926 358.3   11.4 -999
2001-07-16 07:32:58 51°13.676 2°55.926 358.3   7.2 -999
2001-07-16 07:33:02 51°13.676 2°55.925 358.3   127.2 -999
2001-07-16 07:33:08 51°13.676 2°55.925 358.3   155.2 -999
2001-07-16 07:33:12 51°13.676 2°55.925 358.3   203.8 -999
2001-07-16 07:33:18 51°13.676 2°55.925 358.3   333.8 -999
2001-07-16 07:33:22 51°13.676 2°55.925 358.3   332 -999
2001-07-16 07:33:27 51°13.676 2°55.925 358.2   336 -999
2001-07-16 07:33:32 51°13.676 2°55.925 358.2   345.8 -999
2001-07-16 07:33:38 51°13.676 2°55.925 358.2   335.1 -999
2001-07-16 07:33:43 51°13.676 2°55.925 358.2   3.5 -999
2001-07-16 07:33:48 51°13.676 2°55.925 358.2   102.8 -999
2001-07-16 07:33:52 51°13.676 2°55.925 358.2   130.4 -999
2001-07-16 07:33:57 51°13.676 2°55.925 358.3   102.9 -999
2001-07-16 07:34:02 51°13.676 2°55.925 358.3   300.7 -999
2001-07-16 07:34:07 51°13.676 2°55.925 358.5   285.5 -999
2001-07-16 07:34:12 51°13.676 2°55.925 358.5   228.3 -999
2001-07-16 07:34:18 51°13.676 2°55.925 358.5   236.5 -999
2001-07-16 07:34:22 51°13.676 2°55.925 358.7   222.5 -999
2001-07-16 07:34:27 51°13.676 2°55.925 358.7   265.7 -999
2001-07-16 07:34:32 51°13.676 2°55.925 358.7   308.9 -999
2001-07-16 07:34:37 51°13.676 2°55.925 358.8   286.5 -999
2001-07-16 07:34:42 51°13.676 2°55.925 358.8   177.3 -999
2001-07-16 07:34:48 51°13.676 2°55.925 358.8   157.1 -999
2001-07-16 07:34:52 51°13.676 2°55.925 358.7   139.4 -999
2001-07-16 07:34:58 51°13.676 2°55.925 358.7   140.5 -999
2001-07-16 07:35:02 51°13.676 2°55.925 358.7   38.4 -999
2001-07-16 07:35:07 51°13.676 2°55.925 358.7   89.1 -999
2001-07-16 07:35:12 51°13.676 2°55.925 358.7   135.6 -999
2001-07-16 07:35:17 51°13.676 2°55.925 358.7   162.1 -999
2001-07-16 07:35:22 51°13.676 2°55.925 358.7   336.2 -999
2001-07-16 07:35:28 51°13.676 2°55.925 358.7   320.7 -999
2001-07-16 07:35:32 51°13.676 2°55.925 358.7   260 -999
2001-07-16 07:35:37 51°13.676 2°55.925 358.7   290.9 -999
2001-07-16 07:35:42 51°13.676 2°55.925 358.7   354 -999
2001-07-16 07:35:47 51°13.676 2°55.925 358.7   9.4 -999
2001-07-16 07:35:52 51°13.676 2°55.925 358.7   144.3 -999
2001-07-16 07:35:58 51°13.676 2°55.925 358.5   148.8 -999
2001-07-16 07:36:02 51°13.676 2°55.925 358.5   117.1 -999
2001-07-16 07:36:08 51°13.676 2°55.925 358.5   350.7 -999
2001-07-16 07:36:12 51°13.676 2°55.925 358.5   22.2 -999
2001-07-16 07:36:17 51°13.676 2°55.925 358.3   29.5 -999
2001-07-16 07:36:22 51°13.676 2°55.925 358.3   106.7 -999
2001-07-16 07:36:27 51°13.676 2°55.925 358.3   173.6 -999
2001-07-16 07:36:32 51°13.676 2°55.924 358.3   314.6 -999
2001-07-16 07:36:38 51°13.676 2°55.924 358.3   336.6 -999
2001-07-16 07:36:42 51°13.676 2°55.924 358.3   210 -999
2001-07-16 07:36:47 51°13.676 2°55.924 358.3   187 -999
2001-07-16 07:36:52 51°13.676 2°55.924 358.3   223.6 -999
2001-07-16 07:36:57 51°13.676 2°55.924 358.5   292.9 -999
2001-07-16 07:37:02 51°13.676 2°55.924 358.5   317.4 -999
2001-07-16 07:37:08 51°13.676 2°55.924 358.5   8.8 -999
2001-07-16 07:37:12 51°13.676 2°55.924 358.5   60.2 -999
2001-07-16 07:37:18 51°13.676 2°55.924 358.3   161.3 -999
2001-07-16 07:37:22 51°13.677 2°55.924 358.3   151.7 -999
2001-07-16 07:37:27 51°13.677 2°55.924 358.3   123 -999
2001-07-16 07:37:32 51°13.677 2°55.924 358.3   150.6 -999
2001-07-16 07:37:37 51°13.677 2°55.924 358.2   167.5 -999
2001-07-16 07:37:42 51°13.677 2°55.924 358.2   200.8 -999
2001-07-16 07:37:48 51°13.677 2°55.924 358.2   265.7 -999
2001-07-16 07:37:52 51°13.677 2°55.924 358.2   198 -999
2001-07-16 07:37:57 51°13.677 2°55.924 358.3   184.4 -999
2001-07-16 07:38:02 51°13.677 2°55.924 358.3   216.6 -999
2001-07-16 07:38:08 51°13.677 2°55.924 358.3   193.4 -999
2001-07-16 07:38:12 51°13.677 2°55.924 358.3   213.6 -999
2001-07-16 07:38:18 51°13.677 2°55.924 358.5   32.4 -999
2001-07-16 07:38:23 51°13.677 2°55.924 358.5   46.7 -999
2001-07-16 07:38:28 51°13.677 2°55.924 358.5   111.5 -999
2001-07-16 07:38:32 51°13.677 2°55.924 358.5   155 -999
2001-07-16 07:38:37 51°13.677 2°55.924 358.3   28.8 -999
2001-07-16 07:38:42 51°13.677 2°55.924 358.3   73.4 -999
2001-07-16 07:38:47 51°13.676 2°55.924 358.3   103.4 -999
2001-07-16 07:38:52 51°13.676 2°55.924 358.3   38.3 -999
2001-07-16 07:38:58 51°13.676 2°55.924 358.3   15.8 -999
2001-07-16 07:39:02 51°13.676 2°55.924 358.3   17 -999
2001-07-16 07:39:07 51°13.676 2°55.924 358.2   17.4 -999
2001-07-16 07:39:12 51°13.676 2°55.924 358.2   41.9 -999
2001-07-16 07:39:18 51°13.676 2°55.924 358.2   189.9 -999
2001-07-16 07:39:22 51°13.676 2°55.924 358.2   192.9 -999
2001-07-16 07:39:28 51°13.676 2°55.924 358.2   175.6 -999
2001-07-16 07:39:32 51°13.676 2°55.924 358   152.5 -999
2001-07-16 07:39:38 51°13.676 2°55.924 358   77.1 -999
2001-07-16 07:39:42 51°13.676 2°55.924 358   46.9 -999
2001-07-16 07:39:47 51°13.676 2°55.924 358.2   145.1 -999
2001-07-16 07:39:52 51°13.676 2°55.924 358.2   38.8 -999
2001-07-16 07:39:57 51°13.676 2°55.924 358.2   155.5 -999
2001-07-16 07:40:02 51°13.676 2°55.924 358.2   157.3 -999
2001-07-16 07:40:08 51°13.676 2°55.924 358.2   173.2 -999
2001-07-16 07:40:12 51°13.676 2°55.924 358.2   155.6 -999
2001-07-16 07:40:17 51°13.676 2°55.924 358.2   156.2 -999
2001-07-16 07:40:22 51°13.676 2°55.924 358.2   216.1 -999
2001-07-16 07:40:27 51°13.676 2°55.924 358.2   237.2 -999
2001-07-16 07:40:32 51°13.676 2°55.924 358.3   237.4 -999
2001-07-16 07:40:38 51°13.676 2°55.924 358.3   218.9 -999
2001-07-16 07:40:42 51°13.676 2°55.924 358.3   283.1 -999
2001-07-16 07:40:48 51°13.676 2°55.924 358.3   20.6 -999
2001-07-16 07:40:52 51°13.676 2°55.924 358.3   160.1 -999
2001-07-16 07:40:57 51°13.676 2°55.924 358.3   163.6 -999
2001-07-16 07:41:02 51°13.676 2°55.924 358.3   156.7 -999
2001-07-16 07:41:07 51°13.676 2°55.924 358.3   167.2 -999
2001-07-16 07:41:12 51°13.676 2°55.924 358.3   173 -999
2001-07-16 07:41:18 51°13.676 2°55.925 358.5   354.7 -999
2001-07-16 07:41:22 51°13.676 2°55.924 358.5   205.6 -999
2001-07-16 07:41:27 51°13.676 2°55.924 358.7   235.1 -999
2001-07-16 07:41:32 51°13.676 2°55.924 358.7   203.5 -999
2001-07-16 07:41:37 51°13.676 2°55.925 358.7   182.7 -999
2001-07-16 07:41:42 51°13.676 2°55.925 358.7   160.2 -999
2001-07-16 07:41:48 51°13.676 2°55.925 358.7   129.7 -999
2001-07-16 07:41:52 51°13.676 2°55.925 358.7   124.3 -999
2001-07-16 07:41:58 51°13.676 2°55.925 358.5   149.2 -999
2001-07-16 07:42:02 51°13.676 2°55.925 358.5   137.1 -999
2001-07-16 07:42:07 51°13.676 2°55.925 358.5   43 -999
2001-07-16 07:42:12 51°13.676 2°55.925 358.3   39.3 -999
2001-07-16 07:42:18 51°13.676 2°55.925 358.3   42.3 -999
2001-07-16 07:42:22 51°13.676 2°55.925 358.3   329.6 -999
2001-07-16 07:42:28 51°13.675 2°55.925 358.3   244.2 -999
2001-07-16 07:42:33 51°13.675 2°55.925 358.5   51.6 -999
2001-07-16 07:42:37 51°13.675 2°55.925 358.5   2.8 -999
2001-07-16 07:42:42 51°13.675 2°55.925 358.5   197.2 -999
2001-07-16 07:42:47 51°13.676 2°55.925 358.5   8.2 -999
2001-07-16 07:42:52 51°13.676 2°55.925 358.5   95.2 -999
2001-07-16 07:42:58 51°13.676 2°55.925 358.7   111.2 -999
2001-07-16 07:43:02 51°13.676 2°55.925 358.7   168.9 -999
2001-07-16 07:43:08 51°13.676 2°55.925 358.7   332.5 -999
2001-07-16 07:43:12 51°13.676 2°55.925 358.8   172.4 -999
2001-07-16 07:43:17 51°13.676 2°55.925 359   180.6 -999
2001-07-16 07:43:22 51°13.676 2°55.925 359   184.8 -999
2001-07-16 07:43:28 51°13.676 2°55.925 359.2   186.4 -999
2001-07-16 07:43:33 51°13.675 2°55.925 359.3   174.9 -999
2001-07-16 07:43:38 51°13.675 2°55.925 359.3   172.6 -999
2001-07-16 07:43:42 51°13.675 2°55.925 359.3   181.7 -999
2001-07-16 07:43:47 51°13.675 2°55.925 359.5   193.6 -999
2001-07-16 07:43:52 51°13.675 2°55.925 359.5   187.8 -999
2001-07-16 07:43:58 51°13.675 2°55.925 359.3   150.4 -999
2001-07-16 07:44:02 51°13.675 2°55.925 359.2   138.4 -999
2001-07-16 07:44:08 51°13.675 2°55.925 359.2   53 -999
2001-07-16 07:44:12 51°13.675 2°55.925 359   67.9 -999
2001-07-16 07:44:18 51°13.675 2°55.925 358.8   72.7 -999
2001-07-16 07:44:22 51°13.675 2°55.925 358.8   174.9 -999
2001-07-16 07:44:28 51°13.675 2°55.925 358.8   228.6 -999
2001-07-16 07:44:32 51°13.675 2°55.924 358.7   253.5 -999
2001-07-16 07:44:37 51°13.676 2°55.924 358.7   31.3 -999
2001-07-16 07:44:42 51°13.676 2°55.925 358.5   53.1 -999
2001-07-16 07:44:48 51°13.675 2°55.925 358.3   48.2 -999
2001-07-16 07:44:52 51°13.675 2°55.925 358.3   44.8 -999
2001-07-16 07:44:57 51°13.676 2°55.925 358.2   19.8 -999
2001-07-16 07:45:02 51°13.675 2°55.924 358.2   199.1 -999
2001-07-16 07:45:07 51°13.675 2°55.924 358.2   199.5 -999
2001-07-16 07:45:12 51°13.675 2°55.924 358.2   206 -999
2001-07-16 07:45:18 51°13.676 2°55.924 358.3   269 -999
2001-07-16 07:45:22 51°13.676 2°55.924 358.3   313.8 -999
2001-07-16 07:45:28 51°13.676 2°55.924 358.5   80.5 -999
2001-07-16 07:45:32 51°13.676 2°55.924 358.5   167.3 -999
2001-07-16 07:45:37 51°13.676 2°55.924 358.7   177.6 -999
2001-07-16 07:45:42 51°13.676 2°55.924 358.7   173.1 -999
2001-07-16 07:45:47 51°13.676 2°55.925 358.8   152.2 -999
2001-07-16 07:45:52 51°13.676 2°55.924 358.8   160.6 -999
2001-07-16 07:45:58 51°13.676 2°55.924 358.8   185.7 -999
2001-07-16 07:46:02 51°13.676 2°55.924 359   227.2 -999
2001-07-16 07:46:07 51°13.676 2°55.924 359   17 -999
2001-07-16 07:46:12 51°13.676 2°55.925 359   28.8 -999
2001-07-16 07:46:17 51°13.676 2°55.925 359   73.8 -999
2001-07-16 07:46:22 51°13.676 2°55.925 358.8   79.5 -999
2001-07-16 07:46:28 51°13.676 2°55.925 358.8   160.5 -999
2001-07-16 07:46:32 51°13.676 2°55.925 358.8   152.2 -999
2001-07-16 07:46:37 51°13.676 2°55.925 358.8   138.5 -999
2001-07-16 07:46:42 51°13.676 2°55.925 358.7   346 -999
2001-07-16 07:46:47 51°13.676 2°55.925 358.7   315.4 -999
2001-07-16 07:46:52 51°13.676 2°55.925 358.7   296.7 -999
2001-07-16 07:46:58 51°13.676 2°55.925 358.7   337.4 -999
2001-07-16 07:47:02 51°13.676 2°55.925 358.7   321.4 -999
2001-07-16 07:47:08 51°13.676 2°55.925 358.5   259.7 -999
2001-07-16 07:47:12 51°13.676 2°55.925 358.5   273.2 -999
2001-07-16 07:47:17 51°13.676 2°55.925 358.3   112.6 -999
2001-07-16 07:47:22 51°13.676 2°55.925 358.3   272.5 -999
2001-07-16 07:47:27 51°13.676 2°55.925 358.3   316.9 -999
2001-07-16 07:47:32 51°13.676 2°55.925 358.3   332 -999
2001-07-16 07:47:38 51°13.676 2°55.925 358.3   322.1 -999
2001-07-16 07:47:42 51°13.677 2°55.925 358.3   50.2 -999
2001-07-16 07:47:47 51°13.677 2°55.925 358.3   162.8 -999
2001-07-16 07:47:52 51°13.677 2°55.925 358.5   180.1 -999
2001-07-16 07:47:57 51°13.677 2°55.925 358.5   198.5 -999
2001-07-16 07:48:02 51°13.677 2°55.925 358.5   191 -999
2001-07-16 07:48:08 51°13.677 2°55.925 358.7   159.2 -999
2001-07-16 07:48:13 51°13.677 2°55.925 358.7   57.4 -999
2001-07-16 07:48:18 51°13.677 2°55.925 358.7   72.6 -999
2001-07-16 07:48:22 51°13.677 2°55.925 358.7   171.2 -999
2001-07-16 07:48:27 51°13.677 2°55.925 358.7   175.2 -999
2001-07-16 07:48:32 51°13.677 2°55.925 358.8   190.9 -999
2001-07-16 07:48:38 51°13.677 2°55.925 358.8   280.7 -999
2001-07-16 07:48:42 51°13.677 2°55.925 358.8   322.9 -999
2001-07-16 07:48:48 51°13.677 2°55.925 358.8   283.7 -999
2001-07-16 07:48:52 51°13.677 2°55.925 359   237.7 -999
2001-07-16 07:48:57 51°13.677 2°55.925 359   197.4 -999
2001-07-16 07:49:02 51°13.677 2°55.925 359   208.4 -999
2001-07-16 07:49:08 51°13.677 2°55.925 358.8   182.4 -999
2001-07-16 07:49:12 51°13.677 2°55.925 358.8   353.3 -999
2001-07-16 07:49:18 51°13.677 2°55.925 358.8   345.6 -999
2001-07-16 07:49:22 51°13.677 2°55.925 358.7   354.9 -999
2001-07-16 07:49:28 51°13.677 2°55.925 358.7   281 -999
2001-07-16 07:49:32 51°13.677 2°55.925 358.7   301.3 -999
2001-07-16 07:49:37 51°13.677 2°55.925 358.7   239.4 -999
2001-07-16 07:49:42 51°13.677 2°55.925 358.7   182.8 -999
2001-07-16 07:49:48 51°13.677 2°55.925 358.7   151.7 -999
2001-07-16 07:49:52 51°13.677 2°55.925 358.7   187.7 -999
2001-07-16 07:49:58 51°13.677 2°55.925 358.7   282.5 -999
2001-07-16 07:50:02 51°13.677 2°55.925 358.7   300.4 -999
2001-07-16 07:50:08 51°13.677 2°55.925 358.7   144.9 -999
2001-07-16 07:50:12 51°13.677 2°55.925 358.7   155.7 -999
2001-07-16 07:50:18 51°13.678 2°55.925 358.7   125.2 -999
2001-07-16 07:50:22 51°13.678 2°55.925 358.7   151 -999
2001-07-16 07:50:28 51°13.678 2°55.925 358.5   63.2 -999
2001-07-16 07:50:32 51°13.678 2°55.925 358.5   71.1 -999
2001-07-16 07:50:38 51°13.678 2°55.925 358.5   111 -999
2001-07-16 07:50:42 51°13.678 2°55.925 358.5   84.7 -999
2001-07-16 07:50:47 51°13.678 2°55.925 358.3   66.9 -999
2001-07-16 07:50:52 51°13.678 2°55.925 358.3   39.1 -999
2001-07-16 07:50:58 51°13.678 2°55.925 358.3   40.5 -999
2001-07-16 07:51:02 51°13.678 2°55.925 358.3   288.6 -999
2001-07-16 07:51:08 51°13.678 2°55.925 358.3   257.4 -999
2001-07-16 07:51:12 51°13.679 2°55.926 358.3   242 -999
2001-07-16 07:51:17 51°13.679 2°55.926 358.5   236.5 -999
2001-07-16 07:51:22 51°13.68 2°55.926 358.5   203.6 -999
2001-07-16 07:51:27 51°13.68 2°55.927 358.5   188.8 -999
2001-07-16 07:51:32 51°13.68 2°55.926 358.5   123 -999
2001-07-16 07:51:38 51°13.679 2°55.926 358.5   351.3 -999
2001-07-16 07:51:42 51°13.679 2°55.926 358.5   357.1 -999
2001-07-16 07:51:48 51°13.679 2°55.926 358.5   0.9 -999
2001-07-16 07:51:52 51°13.679 2°55.926 358.3   6.2 -999
2001-07-16 07:51:57 51°13.679 2°55.926 358.3   246 -999
2001-07-16 07:52:02 51°13.679 2°55.926 358.3   271.6 -999
2001-07-16 07:52:08 51°13.679 2°55.926 358.3   187.1 -999
2001-07-16 07:52:12 51°13.679 2°55.926 358.3   340.7 -999
2001-07-16 07:52:18 51°13.678 2°55.926 358.3   19.7 -999
2001-07-16 07:52:22 51°13.678 2°55.926 358.3   63 -999
2001-07-16 07:52:27 51°13.678 2°55.926 358.3   224.8 -999
2001-07-16 07:52:32 51°13.678 2°55.926 358.3   324.4 -999
2001-07-16 07:52:37 51°13.678 2°55.926 358.3   329.4 -999
2001-07-16 07:52:42 51°13.678 2°55.926 358.2   339.2 -999
2001-07-16 07:52:48 51°13.678 2°55.926 358.2   1 -999
2001-07-16 07:52:52 51°13.678 2°55.926 358.2   1.4 -999
2001-07-16 07:52:58 51°13.678 2°55.926 358.2   344.3 -999
2001-07-16 07:53:02 51°13.678 2°55.926 358.2   332.5 -999
2001-07-16 07:53:07 51°13.677 2°55.926 358.2   189.1 -999
2001-07-16 07:53:12 51°13.677 2°55.926 358.3   185.3 -999
2001-07-16 07:53:17 51°13.677 2°55.926 358.3   164.7 -999
2001-07-16 07:53:22 51°13.677 2°55.926 358.3   107.5 -999
2001-07-16 07:53:28 51°13.677 2°55.926 358.3   193.6 -999
2001-07-16 07:53:32 51°13.677 2°55.926 358.5   279.3 -999
2001-07-16 07:53:38 51°13.677 2°55.926 358.5   219.7 -999
2001-07-16 07:53:42 51°13.677 2°55.926 358.5   158.5 -999
2001-07-16 07:53:48 51°13.677 2°55.926 358.5   292.6 -999
2001-07-16 07:53:52 51°13.677 2°55.926 358.5   234.7 -999
2001-07-16 07:53:58 51°13.677 2°55.926 358.5   179.6 -999
2001-07-16 07:54:03 51°13.677 2°55.926 358.5   141.7 -999
2001-07-16 07:54:08 51°13.677 2°55.926 358.7   205.2 -999
2001-07-16 07:54:12 51°13.677 2°55.926 358.7   197.3 -999
2001-07-16 07:54:17 51°13.677 2°55.926 358.7   191.7 -999
2001-07-16 07:54:22 51°13.677 2°55.926 358.8   195.4 -999
2001-07-16 07:54:28 51°13.677 2°55.926 358.8   203.9 -999
2001-07-16 07:54:32 51°13.677 2°55.926 358.8   232.6 -999
2001-07-16 07:54:38 51°13.677 2°55.926 358.8   247.9 -999
2001-07-16 07:54:42 51°13.677 2°55.926 358.8   162 -999
2001-07-16 07:54:47 51°13.677 2°55.926 358.8   133.9 -999
2001-07-16 07:54:52 51°13.677 2°55.926 358.7   26.5 -999
2001-07-16 07:54:57 51°13.676 2°55.926 358.7   96.4 -999
2001-07-16 07:55:02 51°13.676 2°55.926 358.5   60.2 -999
2001-07-16 07:55:08 51°13.676 2°55.926 358.5   356.9 -999
2001-07-16 07:55:12 51°13.676 2°55.926 358.5   320 -999
2001-07-16 07:55:18 51°13.676 2°55.926 358.5   317.8 -999
2001-07-16 07:55:22 51°13.676 2°55.926 358.3   6 -999
2001-07-16 07:55:28 51°13.676 2°55.926 358.3   21.1 -999
2001-07-16 07:55:33 51°13.676 2°55.926 358.3   9.3 -999
2001-07-16 07:55:38 51°13.676 2°55.926 358.3   59.5 -999
2001-07-16 07:55:42 51°13.676 2°55.926 358.3   28.6 -999
2001-07-16 07:55:48 51°13.676 2°55.926 358.3   9.3 -999
2001-07-16 07:55:52 51°13.676 2°55.926 358.3   80.6 -999
2001-07-16 07:55:57 51°13.676 2°55.926 358.3   317.3 -999
2001-07-16 07:56:02 51°13.676 2°55.926 358.3   218.9 -999
2001-07-16 07:56:08 51°13.676 2°55.926 358.5   234.2 -999
2001-07-16 07:56:12 51°13.676 2°55.926 358.5   261.6 -999
2001-07-16 07:56:18 51°13.676 2°55.926 358.5   234.1 -999
2001-07-16 07:56:22 51°13.676 2°55.926 358.5   249.7 -999
2001-07-16 07:56:28 51°13.676 2°55.925 358.7   252.1 -999
2001-07-16 07:56:32 51°13.676 2°55.925 358.7   189.8 -999
2001-07-16 07:56:37 51°13.676 2°55.926 358.7   127.5 -999
2001-07-16 07:56:42 51°13.676 2°55.925 358.7   49.6 -999
2001-07-16 07:56:48 51°13.676 2°55.925 358.7   254.1 -999
2001-07-16 07:56:52 51°13.675 2°55.925 358.7   182.1 -999
2001-07-16 07:56:58 51°13.675 2°55.925 358.5   261 -999
2001-07-16 07:57:02 51°13.675 2°55.925 358.5   293 -999
2001-07-16 07:57:07 51°13.675 2°55.926 358.5   158.1 -999
2001-07-16 07:57:12 51°13.675 2°55.925 358.5   158.4 -999
2001-07-16 07:57:18 51°13.675 2°55.926 358.3   153.6 -999
2001-07-16 07:57:22 51°13.675 2°55.925 358.3   212.8 -999
2001-07-16 07:57:28 51°13.675 2°55.926 358.3   168.1 -999
2001-07-16 07:57:32 51°13.675 2°55.926 358.3   116.9 -999
2001-07-16 07:57:37 51°13.675 2°55.926 358.3   152.2 -999
2001-07-16 07:57:42 51°13.675 2°55.926 358.3   195 -999
2001-07-16 07:57:47 51°13.675 2°55.925 358.3   224.4 -999
2001-07-16 07:57:52 51°13.675 2°55.925 358.5   194.2 -999
2001-07-16 07:57:58 51°13.675 2°55.925 358.5   216 -999
2001-07-16 07:58:02 51°13.675 2°55.925 358.5   154.8 -999
2001-07-16 07:58:08 51°13.675 2°55.925 358.5   51.5 -999
2001-07-16 07:58:12 51°13.675 2°55.925 358.5   153.7 -999
2001-07-16 07:58:17 51°13.675 2°55.925 358.5   173.9 -999
2001-07-16 07:58:22 51°13.675 2°55.925 358.5   189.5 -999
2001-07-16 07:58:28 51°13.675 2°55.925 358.5   206.6 -999
2001-07-16 07:58:32 51°13.675 2°55.925 358.5   217.9 -999
2001-07-16 07:58:38 51°13.675 2°55.925 358.5   282.8 -999
2001-07-16 07:58:42 51°13.675 2°55.925 358.5   265.1 -999
2001-07-16 07:58:48 51°13.675 2°55.925 358.5   220.5 -999
2001-07-16 07:58:52 51°13.675 2°55.925 358.5   254.1 -999
2001-07-16 07:58:57 51°13.675 2°55.925 358.5   267 -999
2001-07-16 07:59:02 51°13.675 2°55.925 358.5   256.7 -999
2001-07-16 07:59:08 51°13.676 2°55.925 358.7   335.5 -999
2001-07-16 07:59:13 51°13.675 2°55.925 358.7   166.5 -999
2001-07-16 07:59:18 51°13.676 2°55.925 358.7   169.3 -999
2001-07-16 07:59:22 51°13.676 2°55.925 358.7   87.4 -999
2001-07-16 07:59:27 51°13.676 2°55.925 358.5   14 -999
2001-07-16 07:59:32 51°13.676 2°55.925 358.5   357.4 -999
2001-07-16 07:59:38 51°13.676 2°55.925 358.5   302.4 -999
2001-07-16 07:59:43 51°13.676 2°55.925 358.5   5.8 -999
2001-07-16 07:59:48 51°13.676 2°55.925 358.5   11.7 -999
2001-07-16 07:59:52 51°13.676 2°55.925 358.5   10.1 -999
2001-07-16 07:59:58 51°13.675 2°55.925 358.5   293.9 -999
2001-07-16 08:00:02 51°13.675 2°55.925 358.3   135.9 -999
2001-07-16 08:00:07 51°13.675 2°55.925 358.3   69.2 -999
2001-07-16 08:00:12 51°13.675 2°55.925 358.3   27.3 -999
2001-07-16 08:00:18 51°13.675 2°55.925 358.3   6.9 -999
2001-07-16 08:00:22 51°13.675 2°55.925 358.3   4.1 -999
2001-07-16 08:00:28 51°13.675 2°55.925 358.2   351.3 -999
2001-07-16 08:00:32 51°13.675 2°55.925 358.2   358.2 -999
2001-07-16 08:00:37 51°13.675 2°55.925 358.2   23 -999
2001-07-16 08:00:42 51°13.675 2°55.925 358.2   255.1 -999
2001-07-16 08:00:47 51°13.675 2°55.925 358.2   230.6 -999
2001-07-16 08:00:52 51°13.675 2°55.925 358.2   197.6 -999
2001-07-16 08:00:58 51°13.675 2°55.925 358.2   163.8 -999
2001-07-16 08:01:02 51°13.675 2°55.925 358.2   119.5 -999
2001-07-16 08:01:08 51°13.675 2°55.925 358.2   283.4 -999
2001-07-16 08:01:12 51°13.675 2°55.925 358.2   256.9 -999
2001-07-16 08:01:17 51°13.675 2°55.925 358   218.7 -999
2001-07-16 08:01:22 51°13.675 2°55.925 358   137.7 -999
2001-07-16 08:01:28 51°13.675 2°55.925 358   259.2 -999
2001-07-16 08:01:32 51°13.675 2°55.925 358   222 -999
2001-07-16 08:01:38 51°13.675 2°55.925 358   219.2 -999
2001-07-16 08:01:42 51°13.675 2°55.925 358   87.3 -999
2001-07-16 08:01:47 51°13.675 2°55.925 358   15 -999
2001-07-16 08:01:52 51°13.675 2°55.925 358   279.5 -999
2001-07-16 08:01:58 51°13.675 2°55.925 358.2   246 -999
2001-07-16 08:02:02 51°13.675 2°55.925 358.2   223.5 -999
2001-07-16 08:02:08 51°13.675 2°55.925 358.2   212.8 -999
2001-07-16 08:02:12 51°13.675 2°55.925 358.2   213 -999
2001-07-16 08:02:18 51°13.675 2°55.925 358.2   99.4 -999
2001-07-16 08:02:22 51°13.675 2°55.925 358.2   117.2 -999
2001-07-16 08:02:27 51°13.675 2°55.925 358.2   190.6 -999
2001-07-16 08:02:32 51°13.675 2°55.925 358.2   208.8 -999
2001-07-16 08:02:38 51°13.676 2°55.925 358.2   207.4 -999
2001-07-16 08:02:42 51°13.676 2°55.925 358.3   163.6 -999
2001-07-16 08:02:48 51°13.676 2°55.925 358.3   189.8 -999
2001-07-16 08:02:52 51°13.676 2°55.925 358.3   202.2 -999
2001-07-16 08:02:57 51°13.676 2°55.925 358.3   206.7 -999
2001-07-16 08:03:02 51°13.676 2°55.925 358.5   70.2 -999
2001-07-16 08:03:08 51°13.676 2°55.925 358.5   127.1 -999
2001-07-16 08:03:12 51°13.676 2°55.925 358.5   165.5 -999
2001-07-16 08:03:18 51°13.676 2°55.925 358.5   166.6 -999
2001-07-16 08:03:23 51°13.676 2°55.925 358.5   191.8 -999
2001-07-16 08:03:27 51°13.676 2°55.925 358.3   165.5 -999
2001-07-16 08:03:32 51°13.676 2°55.925 358.3   155.3 -999
2001-07-16 08:03:38 51°13.676 2°55.925 358.5   195.9 -999
2001-07-16 08:03:42 51°13.676 2°55.925 358.5   207.8 -999
2001-07-16 08:03:48 51°13.676 2°55.924 358.7   207 -999
2001-07-16 08:03:53 51°13.676 2°55.924 358.7   226 -999
2001-07-16 08:03:58 51°13.676 2°55.924 358.8   187.8 -999
2001-07-16 08:04:02 51°13.676 2°55.924 358.8   176.8 -999
2001-07-16 08:04:07 51°13.676 2°55.924 358.7   190.6 -999
2001-07-16 08:04:12 51°13.676 2°55.924 358.7   157 -999
2001-07-16 08:04:18 51°13.676 2°55.924 358.7   151.9 -999
2001-07-16 08:04:22 51°13.676 2°55.924 358.7   173.1 -999
2001-07-16 08:04:28 51°13.676 2°55.924 358.7   225.4 -999
2001-07-16 08:04:32 51°13.676 2°55.924 358.7   194 -999
2001-07-16 08:04:37 51°13.676 2°55.924 358.5   105.7 -999
2001-07-16 08:04:42 51°13.676 2°55.924 358.5   151.5 -999
2001-07-16 08:04:48 51°13.676 2°55.924 358.5   193.1 -999
2001-07-16 08:04:53 51°13.676 2°55.924 358.3   212 -999
2001-07-16 08:04:58 51°13.676 2°55.924 358.3   144.9 -999
2001-07-16 08:05:02 51°13.676 2°55.924 358.5   331.8 -999
2001-07-16 08:05:08 51°13.676 2°55.924 358.5   309.2 -999
2001-07-16 08:05:12 51°13.676 2°55.924 358.5   16.4 -999
2001-07-16 08:05:18 51°13.676 2°55.925 358.7   66.3 -999
2001-07-16 08:05:22 51°13.676 2°55.925 358.7   178.9 -999
2001-07-16 08:05:28 51°13.675 2°55.925 358.7   177 -999
2001-07-16 08:05:32 51°13.675 2°55.925 358.7   164.4 -999
2001-07-16 08:05:38 51°13.675 2°55.925 358.7   125 -999
2001-07-16 08:05:42 51°13.675 2°55.925 358.5   128.5 -999
2001-07-16 08:05:48 51°13.675 2°55.925 358.5   197.8 -999
2001-07-16 08:05:52 51°13.675 2°55.925 358.5   225.3 -999
2001-07-16 08:05:57 51°13.675 2°55.925 358.5   185.2 -999
2001-07-16 08:06:02 51°13.675 2°55.925 358.7   30.8 -999
2001-07-16 08:06:08 51°13.675 2°55.925 358.7   56.9 -999
2001-07-16 08:06:12 51°13.675 2°55.925 358.7   310.1 -999
2001-07-16 08:06:18 51°13.675 2°55.925 358.7   339.6 -999
2001-07-16 08:06:22 51°13.675 2°55.925 358.7   192.8 -999
2001-07-16 08:06:27 51°13.675 2°55.925 358.7   173.1 -999
2001-07-16 08:06:32 51°13.676 2°55.924 358.7   219.2 -999
2001-07-16 08:06:38 51°13.675 2°55.924 358.7   237.7 -999
2001-07-16 08:06:42 51°13.675 2°55.924 358.7   201.4 -999
2001-07-16 08:06:48 51°13.675 2°55.924 358.7   149.3 -999
2001-07-16 08:06:52 51°13.675 2°55.924 358.7   122.5 -999
2001-07-16 08:06:57 51°13.675 2°55.925 358.5   112 -999
2001-07-16 08:07:02 51°13.676 2°55.925 358.5   129.2 -999
2001-07-16 08:07:07 51°13.676 2°55.924 358.5   201.8 -999
2001-07-16 08:07:12 51°13.676 2°55.925 358.5   281.9 -999
2001-07-16 08:07:18 51°13.676 2°55.925 358.7   333.9 -999
2001-07-16 08:07:22 51°13.676 2°55.925 358.7   338.1 -999
2001-07-16 08:07:28 51°13.676 2°55.925 358.7   231 -999
2001-07-16 08:07:32 51°13.675 2°55.925 358.8   190.7 -999
2001-07-16 08:07:37 51°13.675 2°55.925 358.8   173.5 -999
2001-07-16 08:07:42 51°13.675 2°55.925 358.8   163 -999
2001-07-16 08:07:48 51°13.675 2°55.925 358.8   166.6 -999
2001-07-16 08:07:52 51°13.675 2°55.925 358.7   165.8 -999
2001-07-16 08:07:58 51°13.675 2°55.925 358.7   124.3 -999
2001-07-16 08:08:03 51°13.675 2°55.925 358.7   319.9 -999
2001-07-16 08:08:07 51°13.676 2°55.925 358.7   351.9 -999
2001-07-16 08:08:12 51°13.676 2°55.925 358.7   141.8 -999
2001-07-16 08:08:18 51°13.676 2°55.925 358.7   162.4 -999
2001-07-16 08:08:22 51°13.676 2°55.925 358.7   168.7 -999
2001-07-16 08:08:28 51°13.676 2°55.925 358.7   40.4 -999
2001-07-16 08:08:33 51°13.676 2°55.925 358.7   11.8 -999
2001-07-16 08:08:38 51°13.676 2°55.925 358.7   350.6 -999
2001-07-16 08:08:42 51°13.676 2°55.925 358.5   0.7 -999
2001-07-16 08:08:47 51°13.676 2°55.925 358.5   154.6 -999
2001-07-16 08:08:52 51°13.676 2°55.925 358.5   141.4 -999
2001-07-16 08:08:58 51°13.676 2°55.925 358.5   151.2 -999
2001-07-16 08:09:02 51°13.676 2°55.925 358.3   159.8 -999
2001-07-16 08:09:08 51°13.676 2°55.925 358.3   157.4 -999
2001-07-16 08:09:12 51°13.676 2°55.925 358.3   8.2 -999
2001-07-16 08:09:17 51°13.676 2°55.925 358.2   17.2 -999
2001-07-16 08:09:22 51°13.676 2°55.925 358.2   24.6 -999
2001-07-16 08:09:28 51°13.676 2°55.925 358.2   11.2 -999
2001-07-16 08:09:32 51°13.676 2°55.925 358   7.2 -999
2001-07-16 08:09:38 51°13.676 2°55.925 358   7 -999
2001-07-16 08:09:42 51°13.676 2°55.925 358   353.6 -999
2001-07-16 08:09:48 51°13.676 2°55.925 358   345.1 -999
2001-07-16 08:09:52 51°13.676 2°55.925 358   332.8 -999
2001-07-16 08:09:58 51°13.676 2°55.925 358.2   330 -999
2001-07-16 08:10:02 51°13.676 2°55.925 358.2   4.4 -999
2001-07-16 08:10:08 51°13.676 2°55.925 358.2   58.7 -999
2001-07-16 08:10:12 51°13.676 2°55.925 358   44.4 -999
2001-07-16 08:10:18 51°13.675 2°55.925 358   127.3 -999
2001-07-16 08:10:22 51°13.675 2°55.925 358   145.9 -999
2001-07-16 08:10:27 51°13.675 2°55.925 358   162.2 -999
2001-07-16 08:10:32 51°13.675 2°55.925 357.8   161.8 -999
2001-07-16 08:10:38 51°13.675 2°55.925 357.8   12.3 -999
2001-07-16 08:10:42 51°13.675 2°55.925 357.8   29.4 -999
2001-07-16 08:10:48 51°13.675 2°55.925 357.8   174.5 -999
2001-07-16 08:10:52 51°13.675 2°55.925 357.8   164.2 -999
2001-07-16 08:10:58 51°13.675 2°55.925 358   173.6 -999
2001-07-16 08:11:02 51°13.675 2°55.925 358   178.3 -999
2001-07-16 08:11:08 51°13.675 2°55.925 358   181.1 -999
2001-07-16 08:11:12 51°13.675 2°55.925 358.2   184.4 -999
2001-07-16 08:11:18 51°13.675 2°55.925 358.2   239.3 -999
2001-07-16 08:11:22 51°13.675 2°55.925 358.2   15.6 -999
2001-07-16 08:11:28 51°13.675 2°55.925 358.2   20.6 -999
2001-07-16 08:11:32 51°13.675 2°55.925 358.2   359 -999
2001-07-16 08:11:38 51°13.675 2°55.925 358.2   344.7 -999
2001-07-16 08:11:42 51°13.675 2°55.925 358.2   196 -999
2001-07-16 08:11:48 51°13.675 2°55.925 358.2   1.1 -999
2001-07-16 08:11:52 51°13.675 2°55.925 358.2   40.9 -999
2001-07-16 08:11:58 51°13.675 2°55.925 358.2   161.1 -999
2001-07-16 08:12:02 51°13.675 2°55.925 358.2   35.6 -999
2001-07-16 08:12:08 51°13.675 2°55.925 358.2   316.9 -999
2001-07-16 08:12:13 51°13.676 2°55.925 358.2   324.7 -999
2001-07-16 08:12:17 51°13.676 2°55.925 358.3   327.4 -999
2001-07-16 08:12:22 51°13.676 2°55.925 358.3   337.5 -999
2001-07-16 08:12:28 51°13.676 2°55.925 358.3   356.4 -999
2001-07-16 08:12:32 51°13.675 2°55.925 358.3   19.4 -999
2001-07-16 08:12:38 51°13.675 2°55.925 358.3   26.3 -999
2001-07-16 08:12:42 51°13.675 2°55.925 358.3   15.8 -999
2001-07-16 08:12:47 51°13.675 2°55.925 358.3   61.4 -999
2001-07-16 08:12:52 51°13.675 2°55.925 358.5   343 -999
2001-07-16 08:12:58 51°13.675 2°55.925 358.5   292.3 -999
2001-07-16 08:13:02 51°13.675 2°55.925 358.5   260 -999
2001-07-16 08:13:08 51°13.675 2°55.925 358.7   178.2 -999
2001-07-16 08:13:12 51°13.675 2°55.925 358.7   244 -999
2001-07-16 08:13:18 51°13.675 2°55.925 358.8   272.2 -999
2001-07-16 08:13:22 51°13.675 2°55.925 358.8   241.4 -999
2001-07-16 08:13:27 51°13.675 2°55.925 358.8   184.7 -999
2001-07-16 08:13:32 51°13.675 2°55.925 358.7   11.7 -999
2001-07-16 08:13:38 51°13.675 2°55.925 358.7   50.1 -999
2001-07-16 08:13:42 51°13.675 2°55.925 358.5   40.5 -999
2001-07-16 08:13:48 51°13.675 2°55.925 358.5   32 -999
2001-07-16 08:13:52 51°13.675 2°55.925 358.5   320.8 -999
2001-07-16 08:13:57 51°13.675 2°55.925 358.5   331.7 -999
2001-07-16 08:14:02 51°13.675 2°55.925 358.5   313.4 -999
2001-07-16 08:14:08 51°13.675 2°55.925 358.5   12 -999
2001-07-16 08:14:12 51°13.675 2°55.925 358.3   94.6 -999
2001-07-16 08:14:18 51°13.675 2°55.925 358.2   124.5 -999
2001-07-16 08:14:22 51°13.676 2°55.925 358.2   142.2 -999
2001-07-16 08:14:28 51°13.676 2°55.925 358.3   228.1 -999
2001-07-16 08:14:32 51°13.675 2°55.925 358.3   235.1 -999
2001-07-16 08:14:37 51°13.676 2°55.925 358.5   227.4 -999
2001-07-16 08:14:42 51°13.676 2°55.925 358.5   245.6 -999
2001-07-16 08:14:48 51°13.676 2°55.925 358.5   40.9 -999
2001-07-16 08:14:52 51°13.676 2°55.925 358.5   53.8 -999
2001-07-16 08:14:58 51°13.675 2°55.925 358.5   81.9 -999
2001-07-16 08:15:02 51°13.675 2°55.925 358.7   144.5 -999
2001-07-16 08:15:08 51°13.675 2°55.925 358.7   235.2 -999
2001-07-16 08:15:12 51°13.675 2°55.925 358.8   253.9 -999
2001-07-16 08:15:18 51°13.676 2°55.925 359   263 -999
2001-07-16 08:15:23 51°13.676 2°55.925 359   75.6 -999
2001-07-16 08:15:28 51°13.676 2°55.925 359   33.4 -999
2001-07-16 08:15:32 51°13.676 2°55.925 358.8   43 -999
2001-07-16 08:15:38 51°13.676 2°55.925 358.8   46 -999
2001-07-16 08:15:42 51°13.676 2°55.925 358.7   83.1 -999
2001-07-16 08:15:47 51°13.676 2°55.925 358.7   88.3 -999
2001-07-16 08:15:53 51°13.676 2°55.925 358.8   43.9 -999
2001-07-16 08:15:58 51°13.676 2°55.925 358.8   11.9 -999
2001-07-16 08:16:02 51°13.676 2°55.924 359   323.4 -999
2001-07-16 08:16:08 51°13.676 2°55.924 359   298.1 -999
2001-07-16 08:16:12 51°13.676 2°55.924 359.2   206.7 -999
2001-07-16 08:16:18 51°13.676 2°55.924 359.3   202.4 -999
2001-07-16 08:16:22 51°13.676 2°55.924 359.3   180.6 -999
2001-07-16 08:16:28 51°13.676 2°55.924 359.3   172 -999
2001-07-16 08:16:32 51°13.676 2°55.924 359.3   155.5 -999
2001-07-16 08:16:38 51°13.676 2°55.924 359.3   85.1 -999
2001-07-16 08:16:42 51°13.676 2°55.924 359.2   92.6 -999
2001-07-16 08:16:48 51°13.676 2°55.924 359.2   78.1 -999
2001-07-16 08:16:52 51°13.676 2°55.924 359.2   88 -999
2001-07-16 08:16:58 51°13.676 2°55.924 359.2   28.1 -999
2001-07-16 08:17:02 51°13.676 2°55.924 359.2   280.7 -999
2001-07-16 08:17:08 51°13.676 2°55.924 359.3   9.2 -999
2001-07-16 08:17:12 51°13.676 2°55.924 359.3   5.5 -999
2001-07-16 08:17:18 51°13.676 2°55.924 359.3   293.5 -999
2001-07-16 08:17:22 51°13.676 2°55.924 359.3   99.1 -999
2001-07-16 08:17:28 51°13.676 2°55.924 359.3   158.7 -999
2001-07-16 08:17:32 51°13.676 2°55.924 359.2   144.8 -999
2001-07-16 08:17:38 51°13.676 2°55.924 359.2   165.4 -999
2001-07-16 08:17:42 51°13.676 2°55.924 359.2   141.8 -999
2001-07-16 08:17:48 51°13.676 2°55.924 359.2   142.1 -999
2001-07-16 08:17:52 51°13.676 2°55.924 359   45.7 -999
2001-07-16 08:17:58 51°13.676 2°55.924 359   31.7 -999
2001-07-16 08:18:02 51°13.676 2°55.924 359   210.5 -999
2001-07-16 08:18:08 51°13.676 2°55.924 359   293.1 -999
2001-07-16 08:18:12 51°13.676 2°55.924 359   339.1 -999
2001-07-16 08:18:18 51°13.676 2°55.924 359   2.1 -999
2001-07-16 08:18:22 51°13.676 2°55.924 359   2.7 -999
2001-07-16 08:18:28 51°13.676 2°55.924 359.2   358.2 -999
2001-07-16 08:18:32 51°13.676 2°55.924 359.2   1.3 -999
2001-07-16 08:18:37 51°13.676 2°55.924 359.2   283.9 -999
2001-07-16 08:18:42 51°13.676 2°55.924 359.2   172.9 -999
2001-07-16 08:18:48 51°13.676 2°55.924 359.2   152.4 -999
2001-07-16 08:18:52 51°13.676 2°55.924 359.2   106.7 -999
2001-07-16 08:18:58 51°13.676 2°55.924 359.2   279.2 -999
2001-07-16 08:19:03 51°13.676 2°55.924 359   122.8 -999
2001-07-16 08:19:07 51°13.676 2°55.924 359   66.9 -999
2001-07-16 08:19:12 51°13.676 2°55.924 359   121.9 -999
2001-07-16 08:19:18 51°13.676 2°55.924 359   158.9 -999
2001-07-16 08:19:22 51°13.676 2°55.924 359   93.5 -999
2001-07-16 08:19:28 51°13.676 2°55.924 359   140.9 -999
2001-07-16 08:19:32 51°13.676 2°55.924 359   174.2 -999
2001-07-16 08:19:38 51°13.676 2°55.924 359   292.4 -999
2001-07-16 08:19:42 51°13.676 2°55.924 359   334.2 -999
2001-07-16 08:19:47 51°13.676 2°55.924 359   341.6 -999
2001-07-16 08:19:52 51°13.676 2°55.924 359   262.6 -999
2001-07-16 08:19:58 51°13.676 2°55.924 359   230.9 -999
2001-07-16 08:20:02 51°13.676 2°55.924 359   142.8 -999
2001-07-16 08:20:08 51°13.676 2°55.924 359   69.4 -999
2001-07-16 08:20:12 51°13.676 2°55.924 358.8   64.8 -999
2001-07-16 08:20:17 51°13.676 2°55.925 358.8   99.4 -999
2001-07-16 08:20:22 51°13.676 2°55.925 358.8   121.2 -999
2001-07-16 08:20:28 51°13.676 2°55.925 358.7   88.7 -999
2001-07-16 08:20:33 51°13.676 2°55.925 358.7   156.2 -999
2001-07-16 08:20:38 51°13.676 2°55.925 358.7   181.9 -999
2001-07-16 08:20:42 51°13.676 2°55.925 358.8   208.2 -999
2001-07-16 08:20:48 51°13.676 2°55.924 358.8   206.3 -999
2001-07-16 08:20:52 51°13.676 2°55.924 358.8   200.3 -999
2001-07-16 08:20:58 51°13.676 2°55.925 358.8   115.4 -999
2001-07-16 08:21:02 51°13.676 2°55.925 358.7   61 -999
2001-07-16 08:21:08 51°13.676 2°55.925 358.7   62.8 -999
2001-07-16 08:21:12 51°13.676 2°55.925 358.5   121.1 -999
2001-07-16 08:21:18 51°13.676 2°55.925 358.5   141.7 -999
2001-07-16 08:21:22 51°13.676 2°55.925 358.3   72.3 -999
2001-07-16 08:21:28 51°13.676 2°55.925 358.3   349.6 -999
2001-07-16 08:21:32 51°13.676 2°55.925 358.3   306 -999
2001-07-16 08:21:38 51°13.676 2°55.925 358.3   225.1 -999
2001-07-16 08:21:42 51°13.676 2°55.924 358.5   227.7 -999
2001-07-16 08:21:48 51°13.676 2°55.924 358.5   267.2 -999
2001-07-16 08:21:52 51°13.676 2°55.924 358.7   264.9 -999
2001-07-16 08:21:58 51°13.676 2°55.924 358.7   321.4 -999
2001-07-16 08:22:02 51°13.676 2°55.924 358.7   6 -999
2001-07-16 08:22:07 51°13.676 2°55.925 358.7   128.7 -999
2001-07-16 08:22:12 51°13.676 2°55.925 358.7   56.7 -999
2001-07-16 08:22:18 51°13.676 2°55.925 358.7   22.6 -999
2001-07-16 08:22:22 51°13.676 2°55.925 358.5   82.3 -999
2001-07-16 08:22:28 51°13.676 2°55.925 358.5   141.8 -999
2001-07-16 08:22:32 51°13.676 2°55.925 358.5   165.5 -999
2001-07-16 08:22:37 51°13.676 2°55.925 358.5   28.7 -999
2001-07-16 08:22:42 51°13.676 2°55.925 358.5   146.6 -999
2001-07-16 08:22:48 51°13.676 2°55.925 358.5   163.2 -999
2001-07-16 08:22:52 51°13.676 2°55.925 358.5   153.2 -999
2001-07-16 08:22:58 51°13.676 2°55.925 358.5   167.5 -999
2001-07-16 08:23:02 51°13.676 2°55.925 358.5   166.1 -999
2001-07-16 08:23:08 51°13.676 2°55.925 358.5   165.6 -999
2001-07-16 08:23:12 51°13.676 2°55.925 358.5   141 -999
2001-07-16 08:23:18 51°13.676 2°55.925 358.7   163 -999
2001-07-16 08:23:22 51°13.676 2°55.925 358.7   156.6 -999
2001-07-16 08:23:28 51°13.676 2°55.925 358.7   11.4 -999
2001-07-16 08:23:32 51°13.676 2°55.925 358.7   353 -999
2001-07-16 08:23:38 51°13.676 2°55.925 358.7   301.5 -999
2001-07-16 08:23:43 51°13.676 2°55.925 358.7   215.5 -999
2001-07-16 08:23:47 51°13.676 2°55.925 358.7   261 -999
2001-07-16 08:23:52 51°13.676 2°55.925 358.7   349.4 -999
2001-07-16 08:23:58 51°13.676 2°55.925 358.7   353.9 -999
2001-07-16 08:24:02 51°13.676 2°55.925 358.7   6.8 -999
2001-07-16 08:24:08 51°13.676 2°55.925 358.7   106.7 -999
2001-07-16 08:24:13 51°13.676 2°55.925 358.7   134 -999
2001-07-16 08:24:18 51°13.676 2°55.925 358.8   145.1 -999
2001-07-16 08:24:22 51°13.676 2°55.925 358.8   99.8 -999
2001-07-16 08:24:28 51°13.676 2°55.925 358.8   112.9 -999
2001-07-16 08:24:32 51°13.676 2°55.925 358.8   354.3 -999
2001-07-16 08:24:38 51°13.676 2°55.925 358.8   345.2 -999
2001-07-16 08:24:43 51°13.676 2°55.925 358.7   344.6 -999
2001-07-16 08:24:48 51°13.676 2°55.925 358.7   173.1 -999
2001-07-16 08:24:52 51°13.676 2°55.925 358.8   341.9 -999
2001-07-16 08:24:57 51°13.676 2°55.925 358.8   329.9 -999
2001-07-16 08:25:02 51°13.676 2°55.925 358.8   336.2 -999
2001-07-16 08:25:08 51°13.676 2°55.925 358.8   337.8 -999
2001-07-16 08:25:12 51°13.676 2°55.925 358.8   20.5 -999
2001-07-16 08:25:18 51°13.676 2°55.925 358.8   147.5 -999
2001-07-16 08:25:22 51°13.676 2°55.925 358.8   30.5 -999
2001-07-16 08:25:28 51°13.676 2°55.925 358.8   1.3 -999
2001-07-16 08:25:32 51°13.676 2°55.925 358.8   53.3 -999
2001-07-16 08:25:38 51°13.676 2°55.925 359   325.4 -999
2001-07-16 08:25:42 51°13.676 2°55.925 359   350.6 -999
2001-07-16 08:25:48 51°13.676 2°55.925 359   334.8 -999
2001-07-16 08:25:52 51°13.676 2°55.925 359   351.9 -999
2001-07-16 08:25:58 51°13.676 2°55.925 359   14.9 -999
2001-07-16 08:26:02 51°13.676 2°55.925 359   94.7 -999
2001-07-16 08:26:08 51°13.676 2°55.925 359   139.8 -999
2001-07-16 08:26:12 51°13.676 2°55.925 359   119.5 -999
2001-07-16 08:26:18 51°13.676 2°55.925 358.8   132.8 -999
2001-07-16 08:26:22 51°13.676 2°55.925 358.8   153.7 -999
2001-07-16 08:26:28 51°13.676 2°55.925 358.8   153.8 -999
2001-07-16 08:26:32 51°13.676 2°55.925 359   241.1 -999
2001-07-16 08:26:38 51°13.676 2°55.925 359   214.1 -999
2001-07-16 08:26:42 51°13.676 2°55.925 359   295.9 -999
2001-07-16 08:26:48 51°13.676 2°55.925 359.2   311.9 -999
2001-07-16 08:26:52 51°13.676 2°55.925 359.2   326.8 -999
2001-07-16 08:26:58 51°13.676 2°55.925 359.2   340.4 -999
2001-07-16 08:27:02 51°13.676 2°55.925 359.2   359.8 -999
2001-07-16 08:27:08 51°13.676 2°55.925 359.2   345 -999
2001-07-16 08:27:12 51°13.676 2°55.925 359.2   13.7 -999
2001-07-16 08:27:17 51°13.676 2°55.925 359   15.7 -999
2001-07-16 08:27:23 51°13.676 2°55.925 359   92.1 -999
2001-07-16 08:27:28 51°13.676 2°55.925 359   145.9 -999
2001-07-16 08:27:32 51°13.676 2°55.925 359   133.9 -999
2001-07-16 08:27:38 51°13.676 2°55.925 358.8   148 -999
2001-07-16 08:27:42 51°13.676 2°55.925 358.8   31.7 -999
2001-07-16 08:27:47 51°13.676 2°55.925 358.8   358.4 -999
2001-07-16 08:27:52 51°13.676 2°55.925 359   157.9 -999
2001-07-16 08:27:58 51°13.676 2°55.925 359   39.9 -999
2001-07-16 08:28:02 51°13.676 2°55.925 359   153.6 -999
2001-07-16 08:28:08 51°13.676 2°55.925 359   138 -999
2001-07-16 08:28:12 51°13.676 2°55.925 359   153.3 -999
2001-07-16 08:28:18 51°13.676 2°55.925 359   190 -999
2001-07-16 08:28:22 51°13.676 2°55.925 359   169.1 -999
2001-07-16 08:28:27 51°13.676 2°55.925 359.2   141.2 -999
2001-07-16 08:28:32 51°13.676 2°55.925 359.2   146.2 -999
2001-07-16 08:28:38 51°13.676 2°55.925 359.2   147.2 -999
2001-07-16 08:28:42 51°13.676 2°55.925 359.2   148.6 -999
2001-07-16 08:28:48 51°13.676 2°55.925 359.2   314.8 -999
2001-07-16 08:28:52 51°13.676 2°55.925 359.3   335.2 -999
2001-07-16 08:28:57 51°13.676 2°55.925 359.3   333.8 -999
2001-07-16 08:29:02 51°13.676 2°55.925 359.5   332.4 -999
2001-07-16 08:29:08 51°13.676 2°55.925 359.5   185 -999
2001-07-16 08:29:12 51°13.676 2°55.925 359.7   152.6 -999
2001-07-16 08:29:18 51°13.676 2°55.925 359.7   161.1 -999
2001-07-16 08:29:22 51°13.676 2°55.925 359.7   345.4 -999
2001-07-16 08:29:28 51°13.676 2°55.925 359.7   351.2 -999
2001-07-16 08:29:32 51°13.676 2°55.925 359.7   0.6 -999
2001-07-16 08:29:38 51°13.676 2°55.925 359.7   356 -999
2001-07-16 08:29:42 51°13.676 2°55.925 359.5   6.7 -999
2001-07-16 08:29:48 51°13.676 2°55.925 359.5   140.5 -999
2001-07-16 08:29:52 51°13.676 2°55.925 359.5   156.4 -999
2001-07-16 08:29:58 51°13.676 2°55.925 359.5   152.5 -999
2001-07-16 08:30:02 51°13.676 2°55.925 359.5   142.6 -999
2001-07-16 08:30:08 51°13.676 2°55.925 359.5   24.5 -999
2001-07-16 08:30:12 51°13.676 2°55.925 359.5   342.6 -999
2001-07-16 08:30:18 51°13.676 2°55.925 359.5   142.1 -999
2001-07-16 08:30:22 51°13.676 2°55.925 359.5   144.7 -999
2001-07-16 08:30:28 51°13.676 2°55.925 359.5   97.4 -999
2001-07-16 08:30:32 51°13.676 2°55.925 359.7   18.6 -999
2001-07-16 08:30:38 51°13.676 2°55.925 359.7   95.2 -999
2001-07-16 08:30:42 51°13.676 2°55.925 359.7   145.8 -999
2001-07-16 08:30:48 51°13.676 2°55.925 359.7   305 -999
2001-07-16 08:30:52 51°13.676 2°55.925 359.7   322 -999
2001-07-16 08:30:58 51°13.676 2°55.925 359.7   338.1 -999
2001-07-16 08:31:03 51°13.676 2°55.925 359.7   341.9 -999
2001-07-16 08:31:08 51°13.676 2°55.925 359.7   352.2 -999
2001-07-16 08:31:12 51°13.676 2°55.925 359.5   32.2 -999
2001-07-16 08:31:18 51°13.676 2°55.925 359.5   112.7 -999
2001-07-16 08:31:22 51°13.676 2°55.925 359.5   125.9 -999
2001-07-16 08:31:28 51°13.676 2°55.925 359.5   72.3 -999
2001-07-16 08:31:32 51°13.676 2°55.925 359.3   148.3 -999
2001-07-16 08:31:38 51°13.676 2°55.925 359.3   112.9 -999
2001-07-16 08:31:42 51°13.676 2°55.925 359.3   253 -999
2001-07-16 08:31:48 51°13.676 2°55.925 359.3   329.6 -999
2001-07-16 08:31:52 51°13.676 2°55.925 359.3   288.6 -999
2001-07-16 08:31:58 51°13.676 2°55.925 359.3   187.1 -999
2001-07-16 08:32:03 51°13.676 2°55.925 359.3   178.7 -999
2001-07-16 08:32:08 51°13.676 2°55.925 359.3   162.4 -999
2001-07-16 08:32:12 51°13.676 2°55.925 359.3   167.9 -999
2001-07-16 08:32:18 51°13.676 2°55.925 359.5   149.7 -999
2001-07-16 08:32:22 51°13.676 2°55.925 359.5   145.9 -999
2001-07-16 08:32:28 51°13.676 2°55.925 359.5   156.6 -999
2001-07-16 08:32:32 51°13.676 2°55.925 359.5   188 -999
2001-07-16 08:32:38 51°13.676 2°55.925 359.5   314.4 -999
2001-07-16 08:32:42 51°13.676 2°55.925 359.7   313 -999
2001-07-16 08:32:48 51°13.676 2°55.925 359.7   286.1 -999
2001-07-16 08:32:52 51°13.676 2°55.925 359.8   298 -999
2001-07-16 08:32:58 51°13.676 2°55.925 359.8   338.5 -999
2001-07-16 08:33:02 51°13.675 2°55.925 359.8   174.6 -999
2001-07-16 08:33:08 51°13.675 2°55.925 359.8   157.9 -999
2001-07-16 08:33:12 51°13.675 2°55.925 359.8   164.6 -999
2001-07-16 08:33:18 51°13.675 2°55.925 359.7   165.9 -999
2001-07-16 08:33:22 51°13.675 2°55.924 359.7   174.7 -999
2001-07-16 08:33:28 51°13.675 2°55.924 359.7   346.5 -999
2001-07-16 08:33:33 51°13.675 2°55.924 359.7   348.9 -999
2001-07-16 08:33:37 51°13.675 2°55.925 359.7   27.6 -999
2001-07-16 08:33:42 51°13.675 2°55.924 359.7   34.2 -999
2001-07-16 08:33:48 51°13.675 2°55.925 359.5   23.2 -999
2001-07-16 08:33:52 51°13.675 2°55.925 359.5   109.6 -999
2001-07-16 08:33:58 51°13.675 2°55.925 359.5   45.6 -999
2001-07-16 08:34:02 51°13.675 2°55.925 359.5   79.2 -999
2001-07-16 08:34:08 51°13.675 2°55.925 359.5   78.7 -999
2001-07-16 08:34:12 51°13.675 2°55.925 359.7   94.7 -999
2001-07-16 08:34:17 51°13.676 2°55.925 359.7   3.4 -999
2001-07-16 08:34:22 51°13.676 2°55.925 359.7   88.4 -999
2001-07-16 08:34:28 51°13.676 2°55.925 359.7   345.3 -999
2001-07-16 08:34:32 51°13.676 2°55.925 359.8   23.7 -999
2001-07-16 08:34:38 51°13.676 2°55.925 359.8   178 -999
2001-07-16 08:34:43 51°13.676 2°55.925 359.8   137.5 -999
2001-07-16 08:34:47 51°13.676 2°55.925 359.8   112.1 -999
2001-07-16 08:34:52 51°13.676 2°55.925 359.8   98.4 -999
2001-07-16 08:34:58 51°13.676 2°55.925 359.7   93.4 -999
2001-07-16 08:35:02 51°13.676 2°55.925 359.7   288.7 -999
2001-07-16 08:35:08 51°13.676 2°55.925 359.7   330.1 -999
2001-07-16 08:35:12 51°13.675 2°55.925 359.8   229.5 -999
2001-07-16 08:35:18 51°13.675 2°55.925 359.8   235 -999
2001-07-16 08:35:23 51°13.675 2°55.925 359.8   248 -999
2001-07-16 08:35:27 51°13.675 2°55.925     330.3 -999
2001-07-16 08:35:32 51°13.675 2°55.925     334 -999
2001-07-16 08:35:38 51°13.675 2°55.925     5.1 -999
2001-07-16 08:35:43 51°13.675 2°55.925     122.4 -999
2001-07-16 08:35:48 51°13.675 2°55.925     97 -999
2001-07-16 08:35:52 51°13.675 2°55.925 359.8   125.3 -999
2001-07-16 08:35:57 51°13.675 2°55.925 359.8   117.1 -999
2001-07-16 08:36:02 51°13.675 2°55.925     183 -999
2001-07-16 08:36:08 51°13.675 2°55.925     219.9 -999
2001-07-16 08:36:13 51°13.675 2°55.925 0.2   277.5 -999
2001-07-16 08:36:18 51°13.675 2°55.925 0.2   343.4 -999
2001-07-16 08:36:22 51°13.675 2°55.925 0.2   136.8 -999
2001-07-16 08:36:28 51°13.675 2°55.925 0.2   139.4 -999
2001-07-16 08:36:32 51°13.675 2°55.925 0.2   90.7 -999
2001-07-16 08:36:38 51°13.675 2°55.925 0.2   22.8 -999
2001-07-16 08:36:42 51°13.675 2°55.925     31.7 -999
2001-07-16 08:36:48 51°13.675 2°55.925     83.8 -999
2001-07-16 08:36:52 51°13.675 2°55.925     128.3 -999
2001-07-16 08:36:58 51°13.675 2°55.925     117.2 -999
2001-07-16 08:37:02 51°13.675 2°55.925     109.5 -999
2001-07-16 08:37:08 51°13.676 2°55.925     357.7 -999
2001-07-16 08:37:13 51°13.676 2°55.925     358.5 -999
2001-07-16 08:37:18 51°13.676 2°55.925     334.4 -999
2001-07-16 08:37:22 51°13.676 2°55.925 0.2   300.3 -999
2001-07-16 08:37:28 51°13.676 2°55.925 0.2   318.1 -999
2001-07-16 08:37:32 51°13.676 2°55.925 0.2   273.1 -999
2001-07-16 08:37:38 51°13.676 2°55.925 0.2   341.3 -999
2001-07-16 08:37:42 51°13.676 2°55.925 0.2   343.8 -999
2001-07-16 08:37:48 51°13.676 2°55.925 0.2   332.7 -999
2001-07-16 08:37:52 51°13.676 2°55.925     39.6 -999
2001-07-16 08:37:58 51°13.676 2°55.925     133.3 -999
2001-07-16 08:38:02 51°13.676 2°55.925     136.5 -999
2001-07-16 08:38:08 51°13.676 2°55.925     131.9 -999
2001-07-16 08:38:12 51°13.676 2°55.925     36.4 -999
2001-07-16 08:38:18 51°13.676 2°55.925     308.5 -999
2001-07-16 08:38:22 51°13.676 2°55.925     213.1 -999